Crownpoint, New Mexico
Current Conditions -  °F | °C
As of 11:53 AM on Friday 24 Oct 2014 (Local Time) from KGUP Reporting Station
Clear Clear  
Wind Chill: 65°   Ceiling: Unl
Heat Index: 65°   Visibility: 10mi
Dew Point: 36°   Wind: 0mph
Humidity: 34%   Direction: NA
Pressure: 30.4"   Gusts: NA
Location:  35.68°N, 108.16°W
Report Text: KGUP 241753Z AUTO 00000KT 10SM CLR 18/02 A3040 RMK AO2 SLP211 T01830022 10183 20000 58002
Loading
Personal Weather Stations






























Interactive Weather Map
Tropical Storm Tracking
New forecast layout! Learn more

10-Day Weather Forecast

Advertisements
Track Severe Weather on mobile